sensor_id;sensor_type;location;lat;lon;timestamp;temperature;humidity
2623;DHT22;1321;48.690;9.022;2022-07-09T00:02:12;20.20;53.20
2623;DHT22;1321;48.690;9.022;2022-07-09T00:04:40;20.10;54.00
2623;DHT22;1321;48.690;9.022;2022-07-09T00:07:10;20.20;55.50
2623;DHT22;1321;48.690;9.022;2022-07-09T00:09:38;20.20;54.70
2623;DHT22;1321;48.690;9.022;2022-07-09T00:12:07;20.20;53.50
2623;DHT22;1321;48.690;9.022;2022-07-09T00:14:35;20.10;51.40
2623;DHT22;1321;48.690;9.022;2022-07-09T00:17:04;20.10;54.80
2623;DHT22;1321;48.690;9.022;2022-07-09T00:19:32;20.00;55.00
2623;DHT22;1321;48.690;9.022;2022-07-09T00:22:00;20.00;54.70
2623;DHT22;1321;48.690;9.022;2022-07-09T00:24:30;20.00;53.90
2623;DHT22;1321;48.690;9.022;2022-07-09T00:26:58;20.00;54.10
2623;DHT22;1321;48.690;9.022;2022-07-09T00:29:26;19.90;53.50
2623;DHT22;1321;48.690;9.022;2022-07-09T00:31:55;19.90;54.90
2623;DHT22;1321;48.690;9.022;2022-07-09T00:34:24;19.90;52.30
2623;DHT22;1321;48.690;9.022;2022-07-09T00:36:52;19.80;55.00
2623;DHT22;1321;48.690;9.022;2022-07-09T00:39:20;19.80;54.90
2623;DHT22;1321;48.690;9.022;2022-07-09T00:41:50;19.80;56.00
2623;DHT22;1321;48.690;9.022;2022-07-09T00:44:18;19.80;56.30
2623;DHT22;1321;48.690;9.022;2022-07-09T00:46:46;19.80;55.80
2623;DHT22;1321;48.690;9.022;2022-07-09T00:49:14;19.80;56.30
2623;DHT22;1321;48.690;9.022;2022-07-09T00:51:43;19.70;54.60
2623;DHT22;1321;48.690;9.022;2022-07-09T00:54:11;19.70;54.10
2623;DHT22;1321;48.690;9.022;2022-07-09T00:56:40;19.60;51.50
2623;DHT22;1321;48.690;9.022;2022-07-09T00:59:10;19.60;69.60
2623;DHT22;1321;48.690;9.022;2022-07-09T01:01:40;19.60;51.70
2623;DHT22;1321;48.690;9.022;2022-07-09T01:04:08;19.60;52.60
2623;DHT22;1321;48.690;9.022;2022-07-09T01:06:36;19.60;52.80
2623;DHT22;1321;48.690;9.022;2022-07-09T01:09:04;19.60;54.90
2623;DHT22;1321;48.690;9.022;2022-07-09T01:11:34;19.60;55.30
2623;DHT22;1321;48.690;9.022;2022-07-09T01:14:02;19.60;55.60
2623;DHT22;1321;48.690;9.022;2022-07-09T01:16:32;19.60;54.10
2623;DHT22;1321;48.690;9.022;2022-07-09T01:19:01;19.60;53.90
2623;DHT22;1321;48.690;9.022;2022-07-09T01:21:31;19.60;54.80
2623;DHT22;1321;48.690;9.022;2022-07-09T01:24:00;19.50;54.20
2623;DHT22;1321;48.690;9.022;2022-07-09T01:26:28;19.50;54.60
2623;DHT22;1321;48.690;9.022;2022-07-09T01:28:56;19.40;53.60
2623;DHT22;1321;48.690;9.022;2022-07-09T01:31:24;19.40;55.60
2623;DHT22;1321;48.690;9.022;2022-07-09T01:33:53;19.40;54.60
2623;DHT22;1321;48.690;9.022;2022-07-09T01:36:21;19.40;55.00
2623;DHT22;1321;48.690;9.022;2022-07-09T01:38:50;19.30;54.70
2623;DHT22;1321;48.690;9.022;2022-07-09T01:41:18;19.40;56.60
2623;DHT22;1321;48.690;9.022;2022-07-09T01:43:47;19.40;57.30
2623;DHT22;1321;48.690;9.022;2022-07-09T01:46:15;19.40;57.20
2623;DHT22;1321;48.690;9.022;2022-07-09T01:48:43;19.40;57.10
2623;DHT22;1321;48.690;9.022;2022-07-09T01:51:12;19.30;56.90
2623;DHT22;1321;48.690;9.022;2022-07-09T01:53:41;19.30;54.10
2623;DHT22;1321;48.690;9.022;2022-07-09T01:56:10;19.30;56.30
2623;DHT22;1321;48.690;9.022;2022-07-09T01:58:39;19.20;56.60
2623;DHT22;1321;48.690;9.022;2022-07-09T02:01:07;19.20;57.60
2623;DHT22;1321;48.690;9.022;2022-07-09T02:03:35;19.20;57.40
2623;DHT22;1321;48.690;9.022;2022-07-09T02:06:04;19.20;56.60
2623;DHT22;1321;48.690;9.022;2022-07-09T02:08:33;19.10;55.30
2623;DHT22;1321;48.690;9.022;2022-07-09T02:11:01;19.10;57.00
2623;DHT22;1321;48.690;9.022;2022-07-09T02:13:32;19.10;55.60
2623;DHT22;1321;48.690;9.022;2022-07-09T02:16:00;18.50;54.10
2623;DHT22;1321;48.690;9.022;2022-07-09T02:18:29;19.00;54.50
2623;DHT22;1321;48.690;9.022;2022-07-09T02:20:58;19.00;55.00
2623;DHT22;1321;48.690;9.022;2022-07-09T02:23:26;19.00;55.10
2623;DHT22;1321;48.690;9.022;2022-07-09T02:25:54;18.90;54.60
2623;DHT22;1321;48.690;9.022;2022-07-09T02:28:22;18.90;55.00
2623;DHT22;1321;48.690;9.022;2022-07-09T02:30:52;18.90;55.40
2623;DHT22;1321;48.690;9.022;2022-07-09T02:33:20;18.90;56.20
2623;DHT22;1321;48.690;9.022;2022-07-09T02:35:55;18.90;56.80
2623;DHT22;1321;48.690;9.022;2022-07-09T02:38:23;18.90;55.00
2623;DHT22;1321;48.690;9.022;2022-07-09T02:40:51;18.90;56.10
2623;DHT22;1321;48.690;9.022;2022-07-09T02:43:20;18.80;55.70
2623;DHT22;1321;48.690;9.022;2022-07-09T02:45:48;18.80;55.90
2623;DHT22;1321;48.690;9.022;2022-07-09T02:48:19;18.80;56.40
2623;DHT22;1321;48.690;9.022;2022-07-09T02:50:49;18.70;55.40
2623;DHT22;1321;48.690;9.022;2022-07-09T02:53:17;18.80;55.60
2623;DHT22;1321;48.690;9.022;2022-07-09T02:55:46;18.70;57.20
2623;DHT22;1321;48.690;9.022;2022-07-09T02:58:14;18.70;57.30
2623;DHT22;1321;48.690;9.022;2022-07-09T03:00:42;18.80;57.40
2623;DHT22;1321;48.690;9.022;2022-07-09T03:03:10;18.70;57.60
2623;DHT22;1321;48.690;9.022;2022-07-09T03:05:40;18.70;56.70
2623;DHT22;1321;48.690;9.022;2022-07-09T03:08:08;18.70;76.30
2623;DHT22;1321;48.690;9.022;2022-07-09T03:10:36;18.70;58.70
2623;DHT22;1321;48.690;9.022;2022-07-09T03:13:04;18.70;58.80
2623;DHT22;1321;48.690;9.022;2022-07-09T03:15:38;18.60;58.10
2623;DHT22;1321;48.690;9.022;2022-07-09T03:18:06;18.60;58.90
2623;DHT22;1321;48.690;9.022;2022-07-09T03:20:35;18.60;58.60
2623;DHT22;1321;48.690;9.022;2022-07-09T03:23:05;18.60;59.40
2623;DHT22;1321;48.690;9.022;2022-07-09T03:25:33;18.60;60.40
2623;DHT22;1321;48.690;9.022;2022-07-09T03:28:01;18.60;77.70
2623;DHT22;1321;48.690;9.022;2022-07-09T03:30:30;19.00;60.00
2623;DHT22;1321;48.690;9.022;2022-07-09T03:32:58;18.50;57.60
2623;DHT22;1321;48.690;9.022;2022-07-09T03:35:27;18.50;57.70
2623;DHT22;1321;48.690;9.022;2022-07-09T03:37:55;18.50;57.90
2623;DHT22;1321;48.690;9.022;2022-07-09T03:40:25;18.40;57.10
2623;DHT22;1321;48.690;9.022;2022-07-09T03:42:53;18.40;55.60
2623;DHT22;1321;48.690;9.022;2022-07-09T03:45:21;18.40;56.80
2623;DHT22;1321;48.690;9.022;2022-07-09T03:47:49;18.40;56.30
2623;DHT22;1321;48.690;9.022;2022-07-09T03:50:17;18.40;56.70
2623;DHT22;1321;48.690;9.022;2022-07-09T03:52:46;18.40;56.60
2623;DHT22;1321;48.690;9.022;2022-07-09T03:55:14;18.40;58.30
2623;DHT22;1321;48.690;9.022;2022-07-09T03:57:44;18.40;56.70
2623;DHT22;1321;48.690;9.022;2022-07-09T04:00:13;18.40;58.60
2623;DHT22;1321;48.690;9.022;2022-07-09T04:02:41;18.40;55.90
2623;DHT22;1321;48.690;9.022;2022-07-09T04:05:10;18.40;58.20
2623;DHT22;1321;48.690;9.022;2022-07-09T04:07:38;18.30;58.30
2623;DHT22;1321;48.690;9.022;2022-07-09T04:10:07;18.30;58.30
2623;DHT22;1321;48.690;9.022;2022-07-09T04:12:36;18.30;58.70
2623;DHT22;1321;48.690;9.022;2022-07-09T04:15:06;18.30;59.40
2623;DHT22;1321;48.690;9.022;2022-07-09T04:17:34;18.30;57.80
2623;DHT22;1321;48.690;9.022;2022-07-09T04:20:03;18.30;63.00
2623;DHT22;1321;48.690;9.022;2022-07-09T04:22:31;18.30;57.90
2623;DHT22;1321;48.690;9.022;2022-07-09T04:25:00;18.30;60.80
2623;DHT22;1321;48.690;9.022;2022-07-09T04:27:28;18.30;59.70
2623;DHT22;1321;48.690;9.022;2022-07-09T04:29:56;18.30;59.90
2623;DHT22;1321;48.690;9.022;2022-07-09T04:32:26;18.30;60.80
2623;DHT22;1321;48.690;9.022;2022-07-09T04:34:54;18.30;62.20
2623;DHT22;1321;48.690;9.022;2022-07-09T04:37:22;18.30;61.30
2623;DHT22;1321;48.690;9.022;2022-07-09T04:39:50;18.30;62.70
2623;DHT22;1321;48.690;9.022;2022-07-09T04:42:19;18.30;63.50
2623;DHT22;1321;48.690;9.022;2022-07-09T04:44:47;18.30;62.50
2623;DHT22;1321;48.690;9.022;2022-07-09T04:47:15;18.40;62.50
2623;DHT22;1321;48.690;9.022;2022-07-09T04:49:45;18.30;60.60
2623;DHT22;1321;48.690;9.022;2022-07-09T04:52:13;18.30;65.40
2623;DHT22;1321;48.690;9.022;2022-07-09T04:54:44;18.30;65.40
2623;DHT22;1321;48.690;9.022;2022-07-09T04:57:12;18.30;64.30
2623;DHT22;1321;48.690;9.022;2022-07-09T04:59:40;18.30;62.90
2623;DHT22;1321;48.690;9.022;2022-07-09T05:02:09;18.30;65.40
2623;DHT22;1321;48.690;9.022;2022-07-09T05:04:37;18.40;84.40
2623;DHT22;1321;48.690;9.022;2022-07-09T05:07:06;18.40;62.70
2623;DHT22;1321;48.690;9.022;2022-07-09T05:09:35;18.40;64.60
2623;DHT22;1321;48.690;9.022;2022-07-09T05:12:03;18.40;66.80
2623;DHT22;1321;48.690;9.022;2022-07-09T05:14:31;18.40;64.00
2623;DHT22;1321;48.690;9.022;2022-07-09T05:17:00;18.50;66.50
2623;DHT22;1321;48.690;9.022;2022-07-09T05:19:28;18.50;68.40
2623;DHT22;1321;48.690;9.022;2022-07-09T05:21:56;18.60;66.80
2623;DHT22;1321;48.690;9.022;2022-07-09T05:24:26;18.60;74.90
2623;DHT22;1321;48.690;9.022;2022-07-09T05:26:54;18.60;68.10
2623;DHT22;1321;48.690;9.022;2022-07-09T05:29:23;18.60;67.90
2623;DHT22;1321;48.690;9.022;2022-07-09T05:31:53;18.60;69.00
2623;DHT22;1321;48.690;9.022;2022-07-09T05:34:21;18.60;67.00
2623;DHT22;1321;48.690;9.022;2022-07-09T05:36:49;18.60;69.60
2623;DHT22;1321;48.690;9.022;2022-07-09T05:39:18;18.60;70.70
2623;DHT22;1321;48.690;9.022;2022-07-09T05:41:48;18.70;72.70
2623;DHT22;1321;48.690;9.022;2022-07-09T05:44:16;18.70;73.10
2623;DHT22;1321;48.690;9.022;2022-07-09T05:46:50;18.70;73.10
2623;DHT22;1321;48.690;9.022;2022-07-09T05:49:18;18.80;74.30
2623;DHT22;1321;48.690;9.022;2022-07-09T05:51:47;18.80;85.90
2623;DHT22;1321;48.690;9.022;2022-07-09T05:54:15;18.80;75.90
2623;DHT22;1321;48.690;9.022;2022-07-09T05:56:43;18.90;79.40
2623;DHT22;1321;48.690;9.022;2022-07-09T05:59:13;19.00;77.80
2623;DHT22;1321;48.690;9.022;2022-07-09T06:01:41;19.00;76.10
2623;DHT22;1321;48.690;9.022;2022-07-09T06:04:09;19.00;77.20
2623;DHT22;1321;48.690;9.022;2022-07-09T06:06:38;19.10;76.90
2623;DHT22;1321;48.690;9.022;2022-07-09T06:09:06;19.10;75.10
2623;DHT22;1321;48.690;9.022;2022-07-09T06:11:34;19.20;76.60
2623;DHT22;1321;48.690;9.022;2022-07-09T06:14:03;19.20;75.60
2623;DHT22;1321;48.690;9.022;2022-07-09T06:16:32;19.20;76.20
2623;DHT22;1321;48.690;9.022;2022-07-09T06:19:01;19.30;79.70
2623;DHT22;1321;48.690;9.022;2022-07-09T06:21:29;19.30;78.60
2623;DHT22;1321;48.690;9.022;2022-07-09T06:23:57;19.30;78.50
2623;DHT22;1321;48.690;9.022;2022-07-09T06:26:25;19.40;77.10
2623;DHT22;1321;48.690;9.022;2022-07-09T06:28:53;19.40;78.40
2623;DHT22;1321;48.690;9.022;2022-07-09T06:31:21;19.50;83.30
2623;DHT22;1321;48.690;9.022;2022-07-09T06:33:51;19.50;81.90
2623;DHT22;1321;48.690;9.022;2022-07-09T06:36:26;19.60;78.60
2623;DHT22;1321;48.690;9.022;2022-07-09T06:38:54;19.70;80.40
2623;DHT22;1321;48.690;9.022;2022-07-09T06:41:40;19.60;79.20
2623;DHT22;1321;48.690;9.022;2022-07-09T06:44:08;19.60;79.60
2623;DHT22;1321;48.690;9.022;2022-07-09T06:46:36;19.70;78.80
2623;DHT22;1321;48.690;9.022;2022-07-09T06:49:06;19.80;78.90
2623;DHT22;1321;48.690;9.022;2022-07-09T06:51:34;19.80;81.70
2623;DHT22;1321;48.690;9.022;2022-07-09T06:54:03;19.90;83.90
2623;DHT22;1321;48.690;9.022;2022-07-09T06:56:31;19.90;82.80
2623;DHT22;1321;48.690;9.022;2022-07-09T06:58:59;20.00;84.40
2623;DHT22;1321;48.690;9.022;2022-07-09T07:01:28;20.10;85.20
2623;DHT22;1321;48.690;9.022;2022-07-09T07:03:56;20.20;87.50
2623;DHT22;1321;48.690;9.022;2022-07-09T07:06:25;20.20;83.40
2623;DHT22;1321;48.690;9.022;2022-07-09T07:08:54;20.30;89.00
2623;DHT22;1321;48.690;9.022;2022-07-09T07:11:22;20.40;88.30
2623;DHT22;1321;48.690;9.022;2022-07-09T07:13:50;20.50;87.80
2623;DHT22;1321;48.690;9.022;2022-07-09T07:16:18;20.60;90.00
2623;DHT22;1321;48.690;9.022;2022-07-09T07:18:47;20.70;89.70
2623;DHT22;1321;48.690;9.022;2022-07-09T07:21:15;20.70;89.50
2623;DHT22;1321;48.690;9.022;2022-07-09T07:23:45;20.80;88.00
2623;DHT22;1321;48.690;9.022;2022-07-09T07:26:13;20.80;90.00
2623;DHT22;1321;48.690;9.022;2022-07-09T07:28:41;20.90;88.60
2623;DHT22;1321;48.690;9.022;2022-07-09T07:31:09;20.90;90.60
2623;DHT22;1321;48.690;9.022;2022-07-09T07:33:38;20.80;87.40
2623;DHT22;1321;48.690;9.022;2022-07-09T07:36:06;20.80;87.80
2623;DHT22;1321;48.690;9.022;2022-07-09T07:38:35;20.90;86.60
2623;DHT22;1321;48.690;9.022;2022-07-09T07:41:05;20.90;90.50
2623;DHT22;1321;48.690;9.022;2022-07-09T07:43:33;21.00;90.40
2623;DHT22;1321;48.690;9.022;2022-07-09T07:46:01;21.00;91.20
2623;DHT22;1321;48.690;9.022;2022-07-09T07:48:33;21.10;92.80
2623;DHT22;1321;48.690;9.022;2022-07-09T07:51:04;21.10;92.20
2623;DHT22;1321;48.690;9.022;2022-07-09T07:53:32;21.60;89.80
2623;DHT22;1321;48.690;9.022;2022-07-09T07:56:01;21.30;90.80
2623;DHT22;1321;48.690;9.022;2022-07-09T07:58:30;21.30;91.30
2623;DHT22;1321;48.690;9.022;2022-07-09T08:00:59;21.40;91.30
2623;DHT22;1321;48.690;9.022;2022-07-09T08:03:27;21.40;90.40
2623;DHT22;1321;48.690;9.022;2022-07-09T08:05:59;21.40;90.40
2623;DHT22;1321;48.690;9.022;2022-07-09T08:08:27;21.50;91.00
2623;DHT22;1321;48.690;9.022;2022-07-09T08:10:56;21.60;91.70
2623;DHT22;1321;48.690;9.022;2022-07-09T08:13:25;21.70;92.50
2623;DHT22;1321;48.690;9.022;2022-07-09T08:15:57;21.70;92.40
2623;DHT22;1321;48.690;9.022;2022-07-09T08:18:25;21.80;91.60
2623;DHT22;1321;48.690;9.022;2022-07-09T08:20:53;21.90;93.70
2623;DHT22;1321;48.690;9.022;2022-07-09T08:23:22;21.90;93.60
2623;DHT22;1321;48.690;9.022;2022-07-09T08:25:50;22.00;94.80
2623;DHT22;1321;48.690;9.022;2022-07-09T08:28:18;22.10;95.20
2623;DHT22;1321;48.690;9.022;2022-07-09T08:30:46;22.10;96.10
2623;DHT22;1321;48.690;9.022;2022-07-09T08:33:16;22.10;94.70
2623;DHT22;1321;48.690;9.022;2022-07-09T08:35:44;22.10;94.20
2623;DHT22;1321;48.690;9.022;2022-07-09T08:38:12;22.00;95.10
2623;DHT22;1321;48.690;9.022;2022-07-09T08:40:41;22.00;95.50
2623;DHT22;1321;48.690;9.022;2022-07-09T08:43:10;22.10;95.70
2623;DHT22;1321;48.690;9.022;2022-07-09T08:45:38;22.10;96.20
2623;DHT22;1321;48.690;9.022;2022-07-09T08:48:06;22.30;97.90
2623;DHT22;1321;48.690;9.022;2022-07-09T08:50:37;22.30;97.70
2623;DHT22;1321;48.690;9.022;2022-07-09T08:53:08;22.40;96.80
2623;DHT22;1321;48.690;9.022;2022-07-09T08:55:37;22.40;96.50
2623;DHT22;1321;48.690;9.022;2022-07-09T08:58:06;22.50;98.80
2623;DHT22;1321;48.690;9.022;2022-07-09T09:00:35;22.50;98.80
2623;DHT22;1321;48.690;9.022;2022-07-09T09:03:03;22.50;99.10
2623;DHT22;1321;48.690;9.022;2022-07-09T09:05:31;22.60;99.90
2623;DHT22;1321;48.690;9.022;2022-07-09T09:08:16;22.60;99.40
2623;DHT22;1321;48.690;9.022;2022-07-09T09:10:45;22.70;97.10
2623;DHT22;1321;48.690;9.022;2022-07-09T09:13:15;22.80;97.90
2623;DHT22;1321;48.690;9.022;2022-07-09T09:15:43;22.90;98.80
2623;DHT22;1321;48.690;9.022;2022-07-09T09:18:12;22.90;98.00
2623;DHT22;1321;48.690;9.022;2022-07-09T09:20:44;22.90;97.80
2623;DHT22;1321;48.690;9.022;2022-07-09T09:23:17;22.90;97.10
2623;DHT22;1321;48.690;9.022;2022-07-09T09:25:45;22.90;96.10
2623;DHT22;1321;48.690;9.022;2022-07-09T09:28:13;22.90;98.50
2623;DHT22;1321;48.690;9.022;2022-07-09T09:30:42;23.00;99.90
2623;DHT22;1321;48.690;9.022;2022-07-09T09:33:14;23.10;99.90
2623;DHT22;1321;48.690;9.022;2022-07-09T09:35:45;23.10;99.80
2623;DHT22;1321;48.690;9.022;2022-07-09T09:38:13;23.10;99.90
2623;DHT22;1321;48.690;9.022;2022-07-09T09:40:46;23.10;99.90
2623;DHT22;1321;48.690;9.022;2022-07-09T09:43:17;23.20;99.00
2623;DHT22;1321;48.690;9.022;2022-07-09T09:45:49;23.20;96.90
2623;DHT22;1321;48.690;9.022;2022-07-09T09:48:19;23.20;99.90
2623;DHT22;1321;48.690;9.022;2022-07-09T09:50:52;23.20;98.90
2623;DHT22;1321;48.690;9.022;2022-07-09T09:53:23;23.20;98.50
2623;DHT22;1321;48.690;9.022;2022-07-09T09:55:53;23.20;99.20
2623;DHT22;1321;48.690;9.022;2022-07-09T09:58:23;23.30;99.40
2623;DHT22;1321;48.690;9.022;2022-07-09T10:00:51;23.40;99.90
2623;DHT22;1321;48.690;9.022;2022-07-09T10:03:20;23.50;99.80
2623;DHT22;1321;48.690;9.022;2022-07-09T10:05:50;23.50;96.40
2623;DHT22;1321;48.690;9.022;2022-07-09T10:08:18;23.60;98.50
2623;DHT22;1321;48.690;9.022;2022-07-09T10:10:50;23.50;97.50
2623;DHT22;1321;48.690;9.022;2022-07-09T10:13:21;23.50;96.40
2623;DHT22;1321;48.690;9.022;2022-07-09T10:15:50;23.50;94.50
2623;DHT22;1321;48.690;9.022;2022-07-09T10:18:19;23.50;94.70
2623;DHT22;1321;48.690;9.022;2022-07-09T10:20:47;23.60;97.00
2623;DHT22;1321;48.690;9.022;2022-07-09T10:23:22;23.70;98.20
2623;DHT22;1321;48.690;9.022;2022-07-09T10:25:51;23.70;97.50
2623;DHT22;1321;48.690;9.022;2022-07-09T10:28:24;23.70;99.90
2623;DHT22;1321;48.690;9.022;2022-07-09T10:30:53;23.70;99.90
2623;DHT22;1321;48.690;9.022;2022-07-09T10:33:22;23.80;99.70
2623;DHT22;1321;48.690;9.022;2022-07-09T10:35:52;23.80;96.70
2623;DHT22;1321;48.690;9.022;2022-07-09T10:38:21;23.80;94.50
2623;DHT22;1321;48.690;9.022;2022-07-09T10:40:58;23.70;95.10
2623;DHT22;1321;48.690;9.022;2022-07-09T10:43:41;23.80;93.90
2623;DHT22;1321;48.690;9.022;2022-07-09T10:46:13;23.70;92.00
2623;DHT22;1321;48.690;9.022;2022-07-09T10:48:44;23.80;92.60
2623;DHT22;1321;48.690;9.022;2022-07-09T10:51:17;23.90;95.10
2623;DHT22;1321;48.690;9.022;2022-07-09T10:53:46;24.00;96.00
2623;DHT22;1321;48.690;9.022;2022-07-09T10:56:16;24.10;99.90
2623;DHT22;1321;48.690;9.022;2022-07-09T10:58:47;24.10;98.50
2623;DHT22;1321;48.690;9.022;2022-07-09T11:01:19;24.20;99.90
2623;DHT22;1321;48.690;9.022;2022-07-09T11:03:49;24.30;99.90
2623;DHT22;1321;48.690;9.022;2022-07-09T11:06:18;24.40;99.80
2623;DHT22;1321;48.690;9.022;2022-07-09T11:08:46;24.40;99.80
2623;DHT22;1321;48.690;9.022;2022-07-09T11:11:20;24.30;99.90
2623;DHT22;1321;48.690;9.022;2022-07-09T11:13:51;24.40;99.90
2623;DHT22;1321;48.690;9.022;2022-07-09T11:16:22;24.30;99.90
2623;DHT22;1321;48.690;9.022;2022-07-09T11:18:51;24.40;99.90
2623;DHT22;1321;48.690;9.022;2022-07-09T11:21:22;24.30;99.90
2623;DHT22;1321;48.690;9.022;2022-07-09T11:23:50;24.30;99.60
2623;DHT22;1321;48.690;9.022;2022-07-09T11:26:19;24.40;99.90
2623;DHT22;1321;48.690;9.022;2022-07-09T11:28:47;24.30;99.90
2623;DHT22;1321;48.690;9.022;2022-07-09T11:31:19;24.30;99.90
2623;DHT22;1321;48.690;9.022;2022-07-09T11:33:48;24.30;99.90
2623;DHT22;1321;48.690;9.022;2022-07-09T11:36:36;24.20;99.90
2623;DHT22;1321;48.690;9.022;2022-07-09T11:39:04;24.20;99.90
2623;DHT22;1321;48.690;9.022;2022-07-09T11:41:40;24.20;99.90
2623;DHT22;1321;48.690;9.022;2022-07-09T11:44:09;24.20;99.90
2623;DHT22;1321;48.690;9.022;2022-07-09T11:46:40;24.20;99.90
2623;DHT22;1321;48.690;9.022;2022-07-09T11:49:14;24.20;99.90
2623;DHT22;1321;48.690;9.022;2022-07-09T11:51:43;24.30;99.90
2623;DHT22;1321;48.690;9.022;2022-07-09T11:54:12;24.40;99.90
2623;DHT22;1321;48.690;9.022;2022-07-09T11:56:41;24.40;99.90
2623;DHT22;1321;48.690;9.022;2022-07-09T11:59:11;24.40;99.90
2623;DHT22;1321;48.690;9.022;2022-07-09T12:01:41;24.40;99.90
2623;DHT22;1321;48.690;9.022;2022-07-09T12:04:18;24.40;99.90
2623;DHT22;1321;48.690;9.022;2022-07-09T12:06:47;24.40;99.90
2623;DHT22;1321;48.690;9.022;2022-07-09T12:09:28;24.40;99.90
2623;DHT22;1321;48.690;9.022;2022-07-09T12:11:58;24.40;99.90
2623;DHT22;1321;48.690;9.022;2022-07-09T12:14:26;24.40;99.90
2623;DHT22;1321;48.690;9.022;2022-07-09T12:16:57;24.50;99.90
2623;DHT22;1321;48.690;9.022;2022-07-09T12:19:25;24.50;99.90
2623;DHT22;1321;48.690;9.022;2022-07-09T12:21:53;24.50;99.90
2623;DHT22;1321;48.690;9.022;2022-07-09T12:24:25;24.60;99.90
2623;DHT22;1321;48.690;9.022;2022-07-09T12:26:53;24.60;99.90
2623;DHT22;1321;48.690;9.022;2022-07-09T12:29:42;24.70;99.90
2623;DHT22;1321;48.690;9.022;2022-07-09T12:32:12;24.70;99.90
2623;DHT22;1321;48.690;9.022;2022-07-09T12:34:40;24.70;99.90
2623;DHT22;1321;48.690;9.022;2022-07-09T12:37:09;24.70;99.90
2623;DHT22;1321;48.690;9.022;2022-07-09T12:39:37;24.70;99.90
2623;DHT22;1321;48.690;9.022;2022-07-09T12:42:05;24.60;99.90
2623;DHT22;1321;48.690;9.022;2022-07-09T12:44:33;24.60;99.90
2623;DHT22;1321;48.690;9.022;2022-07-09T12:47:01;24.60;99.90
2623;DHT22;1321;48.690;9.022;2022-07-09T12:49:31;24.60;99.90
2623;DHT22;1321;48.690;9.022;2022-07-09T12:51:59;24.60;99.90
2623;DHT22;1321;48.690;9.022;2022-07-09T12:54:28;24.60;99.90
2623;DHT22;1321;48.690;9.022;2022-07-09T12:56:56;24.70;99.90
2623;DHT22;1321;48.690;9.022;2022-07-09T12:59:40;24.70;99.90
2623;DHT22;1321;48.690;9.022;2022-07-09T13:02:08;24.70;99.90
2623;DHT22;1321;48.690;9.022;2022-07-09T13:04:38;24.70;99.90
2623;DHT22;1321;48.690;9.022;2022-07-09T13:07:06;24.80;99.90
2623;DHT22;1321;48.690;9.022;2022-07-09T13:09:34;24.80;99.90
2623;DHT22;1321;48.690;9.022;2022-07-09T13:12:04;24.80;99.90
2623;DHT22;1321;48.690;9.022;2022-07-09T13:14:32;24.80;99.90
2623;DHT22;1321;48.690;9.022;2022-07-09T13:17:00;24.80;99.90
2623;DHT22;1321;48.690;9.022;2022-07-09T13:19:50;24.90;99.90
2623;DHT22;1321;48.690;9.022;2022-07-09T13:22:19;24.90;99.90
2623;DHT22;1321;48.690;9.022;2022-07-09T13:24:47;24.90;99.90
2623;DHT22;1321;48.690;9.022;2022-07-09T13:27:15;25.00;99.90
2623;DHT22;1321;48.690;9.022;2022-07-09T13:29:46;25.00;99.90
2623;DHT22;1321;48.690;9.022;2022-07-09T13:32:14;25.00;99.90
2623;DHT22;1321;48.690;9.022;2022-07-09T13:34:49;25.00;99.90
2623;DHT22;1321;48.690;9.022;2022-07-09T13:37:18;25.00;99.90
2623;DHT22;1321;48.690;9.022;2022-07-09T13:39:46;25.00;99.90
2623;DHT22;1321;48.690;9.022;2022-07-09T13:42:15;25.10;99.90
2623;DHT22;1321;48.690;9.022;2022-07-09T13:44:44;25.20;99.90
2623;DHT22;1321;48.690;9.022;2022-07-09T13:47:12;25.20;99.90
2623;DHT22;1321;48.690;9.022;2022-07-09T13:49:41;25.20;99.90
2623;DHT22;1321;48.690;9.022;2022-07-09T13:52:10;25.20;99.90
2623;DHT22;1321;48.690;9.022;2022-07-09T13:54:39;25.30;99.90
2623;DHT22;1321;48.690;9.022;2022-07-09T13:57:07;25.20;99.90
2623;DHT22;1321;48.690;9.022;2022-07-09T13:59:35;25.20;99.90
2623;DHT22;1321;48.690;9.022;2022-07-09T14:02:04;25.20;99.90
2623;DHT22;1321;48.690;9.022;2022-07-09T14:04:32;25.30;99.90
2623;DHT22;1321;48.690;9.022;2022-07-09T14:07:01;25.30;99.90
2623;DHT22;1321;48.690;9.022;2022-07-09T14:09:30;25.30;99.90
2623;DHT22;1321;48.690;9.022;2022-07-09T14:11:58;25.20;99.90
2623;DHT22;1321;48.690;9.022;2022-07-09T14:14:27;25.20;99.90
2623;DHT22;1321;48.690;9.022;2022-07-09T14:16:55;25.20;99.90
2623;DHT22;1321;48.690;9.022;2022-07-09T14:19:23;25.30;99.90
2623;DHT22;1321;48.690;9.022;2022-07-09T14:21:52;25.20;99.90
2623;DHT22;1321;48.690;9.022;2022-07-09T14:24:20;25.30;99.90
2623;DHT22;1321;48.690;9.022;2022-07-09T14:26:50;25.30;99.90
2623;DHT22;1321;48.690;9.022;2022-07-09T14:29:19;25.30;99.90
2623;DHT22;1321;48.690;9.022;2022-07-09T14:31:49;25.30;99.90
2623;DHT22;1321;48.690;9.022;2022-07-09T14:34:27;25.30;99.90
2623;DHT22;1321;48.690;9.022;2022-07-09T14:36:56;25.40;99.90
2623;DHT22;1321;48.690;9.022;2022-07-09T14:39:24;25.40;99.90
2623;DHT22;1321;48.690;9.022;2022-07-09T14:41:52;25.50;99.90
2623;DHT22;1321;48.690;9.022;2022-07-09T14:44:20;25.50;99.90
2623;DHT22;1321;48.690;9.022;2022-07-09T14:46:49;25.50;99.90
2623;DHT22;1321;48.690;9.022;2022-07-09T14:49:18;25.60;99.90
2623;DHT22;1321;48.690;9.022;2022-07-09T14:51:47;25.60;99.90
2623;DHT22;1321;48.690;9.022;2022-07-09T14:54:15;25.50;99.90
2623;DHT22;1321;48.690;9.022;2022-07-09T14:56:44;25.60;99.90
2623;DHT22;1321;48.690;9.022;2022-07-09T14:59:12;25.50;99.90
2623;DHT22;1321;48.690;9.022;2022-07-09T15:01:44;25.60;99.90
2623;DHT22;1321;48.690;9.022;2022-07-09T15:04:12;25.60;99.90
2623;DHT22;1321;48.690;9.022;2022-07-09T15:06:41;25.60;99.90
2623;DHT22;1321;48.690;9.022;2022-07-09T15:09:10;25.60;99.90
2623;DHT22;1321;48.690;9.022;2022-07-09T15:11:39;25.60;99.90
2623;DHT22;1321;48.690;9.022;2022-07-09T15:14:09;25.60;99.90
2623;DHT22;1321;48.690;9.022;2022-07-09T15:16:37;25.70;99.90
2623;DHT22;1321;48.690;9.022;2022-07-09T15:19:06;25.60;99.90
2623;DHT22;1321;48.690;9.022;2022-07-09T15:21:34;25.60;99.90
2623;DHT22;1321;48.690;9.022;2022-07-09T15:24:03;25.60;99.90
2623;DHT22;1321;48.690;9.022;2022-07-09T15:26:33;25.70;99.90
2623;DHT22;1321;48.690;9.022;2022-07-09T15:29:02;25.70;99.90
2623;DHT22;1321;48.690;9.022;2022-07-09T15:31:31;25.70;99.90
2623;DHT22;1321;48.690;9.022;2022-07-09T15:34:00;25.70;99.90
2623;DHT22;1321;48.690;9.022;2022-07-09T15:36:32;25.60;99.90
2623;DHT22;1321;48.690;9.022;2022-07-09T15:39:01;25.70;99.90
2623;DHT22;1321;48.690;9.022;2022-07-09T15:41:30;25.60;99.90
2623;DHT22;1321;48.690;9.022;2022-07-09T15:44:07;25.70;99.90
2623;DHT22;1321;48.690;9.022;2022-07-09T15:46:36;25.70;99.90
2623;DHT22;1321;48.690;9.022;2022-07-09T15:49:06;25.70;99.90
2623;DHT22;1321;48.690;9.022;2022-07-09T15:51:35;25.70;99.90
2623;DHT22;1321;48.690;9.022;2022-07-09T15:54:04;25.80;99.90
2623;DHT22;1321;48.690;9.022;2022-07-09T15:56:32;25.70;99.90
2623;DHT22;1321;48.690;9.022;2022-07-09T15:59:01;25.70;99.90
2623;DHT22;1321;48.690;9.022;2022-07-09T16:01:32;25.60;99.90
2623;DHT22;1321;48.690;9.022;2022-07-09T16:04:02;25.70;99.90
2623;DHT22;1321;48.690;9.022;2022-07-09T16:06:31;25.60;99.90
2623;DHT22;1321;48.690;9.022;2022-07-09T16:09:01;25.60;99.90
2623;DHT22;1321;48.690;9.022;2022-07-09T16:11:30;25.60;99.90
2623;DHT22;1321;48.690;9.022;2022-07-09T16:14:32;25.60;99.90
2623;DHT22;1321;48.690;9.022;2022-07-09T16:17:04;25.60;99.90